Asteria — WDE5489 — position and weather

sailwx.info

Track history (hours):
 
Tides and Currents Weather Stations Pressure Air Temp Water Temp Dewpoint Dewpoint Depression Visibility Wind Speed Wind Dir Waves Ship Positions

Asteria

Owner: Boston HarborCruises, Boston, MA. More information available from US FCC via Universal Licensing System and Coast Guard Vessel Documentation Center.

Last reported at 2016-Jun-29 00:05 UTC. Time now 2016-Jun-29 07:30 UTC.
Position N 42°15' W 070°55'.

Length 33 m; draft 2 m.

Type: High speed craft. MMSI: 367367470.

Date/timePositionNaut miles runAvg speedWind from/ knotsBaromVisibWave heightAir tempDewpointWater temp
2016-Jun-29 00:05N 42°15' W 070°55'815.8
2016-Jun-28 23:33N 42°21' W 071°03'8 8.3
2016-Jun-28 22:34N 42°15' W 070°55'8 8.4
2016-Jun-28 21:33N 42°21' W 071°03'0 0.2
2016-Jun-28 20:34N 42°21' W 071°03'1 0.5
2016-Jun-28 19:33N 42°22' W 071°02'0 0.4
2016-Jun-28 18:34N 42°22' W 071°03'3029.8
2016-Jun-28 17:34N 42°17' W 070°23'3 2.2
2016-Jun-28 16:06N 42°16' W 070°27'1731.9
2016-Jun-28 15:34N 42°19' W 070°50'10 9.9
2016-Jun-28 14:33N 42°22' W 071°03'0 0.2
2016-Jun-28 13:34N 42°22' W 071°03'8 8.3
2016-Jun-28 12:33N 42°15' W 070°55'5 5.5
2016-Jun-28 11:34N 42°20' W 070°60'4 4.3
2016-Jun-28 10:33N 42°16' W 070°56'7 0.7
2016-Jun-27 23:33N 42°21' W 071°03'8 8.3
2016-Jun-27 22:33N 42°15' W 070°55'8 8.4
2016-Jun-27 21:34N 42°21' W 071°03'0 0.3
2016-Jun-27 20:33N 42°21' W 071°03'0 0.5
2016-Jun-27 19:33N 42°22' W 071°02'1 0.6
2016-Jun-27 18:33N 42°22' W 071°03'2626.4
2016-Jun-27 17:34N 42°24' W 070°27'6 6.2
2016-Jun-27 16:33N 42°20' W 070°21'1818.4
2016-Jun-27 15:33N 42°19' W 070°46'1312.8
2016-Jun-27 14:33N 42°22' W 071°03'3 2.5
2016-Jun-27 13:33N 42°20' W 071°00'2 2.1
2016-Jun-27 12:34N 42°21' W 071°02'8 8.1
2016-Jun-27 11:33N 42°15' W 070°55'8 8.4
2016-Jun-27 10:33N 42°21' W 071°03'8 0.7
2016-Jun-26 23:05N 42°16' W 070°56'814.3
2016-Jun-26 22:33N 42°22' W 071°02'1 0.6
2016-Jun-26 21:33N 42°22' W 071°03'2423.8
2016-Jun-26 20:34N 42°23' W 070°31'6 6.4
2016-Jun-26 19:33N 42°25' W 070°23'2120.7
2016-Jun-26 18:34N 42°21' W 070°50'9 9.4
2016-Jun-26 17:33N 42°22' W 071°03'2323.5
2016-Jun-26 16:33N 42°25' W 070°32'10 9.6
2016-Jun-26 15:33N 42°24' W 070°18'2222.4
2016-Jun-26 14:33N 42°21' W 070°48'1110.9
2016-Jun-26 13:33N 42°22' W 071°03'1 0.6
2016-Jun-26 12:33N 42°22' W 071°02'8 8.3
2016-Jun-26 11:33N 42°15' W 070°55'1 0.1
2016-Jun-26 00:32N 42°16' W 070°55'8 8.3
2016-Jun-25 23:34N 42°22' W 071°03'2 1.9
2016-Jun-25 22:33N 42°21' W 071°01'3232.4
2016-Jun-25 21:33N 42°18' W 070°17'5 4.2
2016-Jun-25 20:27N 42°18' W 070°11'2731.0
2016-Jun-25 19:33N 42°21' W 070°48'1111.4
2016-Jun-25 18:33N 42°22' W 071°03'2222.2
2016-Jun-25 17:34N 42°19' W 070°33'11 8.9
2016-Jun-25 16:21N 42°19' W 070°19'2329.6
2016-Jun-25 15:33N 42°19' W 070°50'10 9.8
2016-Jun-25 14:34N 42°22' W 071°03'1 0.6
2016-Jun-25 13:34N 42°22' W 071°02'1 1.3
2016-Jun-25 12:34N 42°23' W 071°03'10 9.4
2016-Jun-25 11:32N 42°15' W 070°55'8 0.7
2016-Jun-24 23:34N 42°21' W 071°03'8 8.2
2016-Jun-24 22:33N 42°15' W 070°55'8 8.2
2016-Jun-24 21:34N 42°21' W 071°02'0 0.3
2016-Jun-24 20:33N 42°21' W 071°03'0 0.2
2016-Jun-24 19:33N 42°22' W 071°03'1 0.6
2016-Jun-24 18:33N 42°22' W 071°02'3 2.5
2016-Jun-24 17:34N 42°20' W 070°59'2726.7
2016-Jun-24 16:33N 42°25' W 070°24'3 2.9
2016-Jun-24 15:33N 42°27' W 070°26'1817.9
2016-Jun-24 14:34N 42°23' W 070°50'10 9.7
2016-Jun-24 13:33N 42°22' W 071°03'9 8.6
2016-Jun-24 12:34N 42°15' W 070°55'6 6.1
2016-Jun-24 11:34N 42°20' W 071°00'2 2.4
2016-Jun-24 10:33N 42°21' W 071°03'6 0.8
2016-Jun-24 02:34N 42°17' W 070°57'2 2.3
2016-Jun-24 01:34N 42°19' W 070°56'3 3.1
2016-Jun-24 00:34N 42°16' W 070°56'7 7.3
2016-Jun-23 23:34N 42°21' W 071°03'8 8.2
2016-Jun-23 22:33N 42°15' W 070°55'8 8.3
2016-Jun-23 21:33N 42°21' W 071°03'0 0.0
2016-Jun-23 20:34N 42°21' W 071°03'1 0.6
2016-Jun-23 19:33N 42°22' W 071°02'1 0.6
2016-Jun-23 18:33N 42°22' W 071°03'7 6.7
2016-Jun-23 17:34N 42°22' W 070°54'2121.3
2016-Jun-23 16:33N 42°29' W 070°26'1313.3
2016-Jun-23 15:33N 42°18' W 070°16'2625.2
2016-Jun-23 14:32N 42°19' W 070°50'1010.1
2016-Jun-23 13:33N 42°22' W 071°03'9 8.6
2016-Jun-23 12:33N 42°15' W 070°55'5 5.3
2016-Jun-23 11:33N 42°19' W 070°60'4 3.5
2016-Jun-23 10:33N 42°18' W 070°55'3 2.8
2016-Jun-23 09:31N 42°15' W 070°55'0 0.0
2016-Jun-23 00:05N 42°15' W 070°55'815.7
2016-Jun-22 23:33N 42°21' W 071°03'8 8.3
2016-Jun-22 22:33N 42°15' W 070°55'8 8.4
2016-Jun-22 21:33N 42°21' W 071°03'0 0.2
2016-Jun-22 20:33N 42°21' W 071°03'2 1.5
2016-Jun-22 19:32N 42°23' W 071°03'1 1.3
2016-Jun-22 18:33N 42°22' W 071°02'5 4.8
2016-Jun-22 17:34N 42°20' W 070°56'2611.7
2016-Jun-22 15:22N 42°20' W 070°21'2125.5
2016-Jun-22 14:32N 42°19' W 070°50'1010.1
2016-Jun-22 13:33N 42°22' W 071°03'9 8.6
2016-Jun-22 12:33N 42°15' W 070°55'6 5.7
2016-Jun-22 11:34N 42°20' W 070°60'5 5.2
2016-Jun-22 10:33N 42°16' W 070°55'1 0.1
2016-Jun-22 00:05N 42°15' W 070°55'815.8
2016-Jun-21 23:33N 42°21' W 071°03'8 8.3
2016-Jun-21 22:33N 42°15' W 070°55'8 7.9
2016-Jun-21 21:33N 42°21' W 071°02'1 0.5
2016-Jun-21 20:34N 42°21' W 071°03'1 0.5
2016-Jun-21 19:33N 42°22' W 071°02'1 0.6
2016-Jun-21 18:34N 42°22' W 071°03'8 8.0
2016-Jun-21 17:34N 42°19' W 070°53'2 0.5
2016-Jun-21 14:29N 42°19' W 070°50'1010.4
2016-Jun-21 13:33N 42°22' W 071°03'9 8.5
2016-Jun-21 12:33N 42°15' W 070°55'5 5.3
2016-Jun-21 11:33N 42°19' W 070°60'4 3.5
2016-Jun-21 10:34N 42°18' W 070°55'6 0.6
2016-Jun-20 23:34N 42°21' W 071°03'8 8.3
2016-Jun-20 22:33N 42°15' W 070°55'8 8.4
2016-Jun-20 21:33N 42°21' W 071°03'0 0.3
2016-Jun-20 20:34N 42°21' W 071°03'0 0.4
2016-Jun-20 19:33N 42°22' W 071°02'1 0.6
2016-Jun-20 18:33N 42°22' W 071°03'8 8.0
2016-Jun-20 17:34N 42°21' W 070°52'4 1.3
2016-Jun-20 14:32N 42°19' W 070°49'1111.1
2016-Jun-20 13:33N 42°22' W 071°03'9 8.5
2016-Jun-20 12:33N 42°15' W 070°55'6 5.7
2016-Jun-20 11:34N 42°20' W 070°60'5 4.7
2016-Jun-20 10:33N 42°16' W 070°56'1 0.1
2016-Jun-20 00:19N 42°16' W 070°55'810.1
2016-Jun-19 23:33N 42°22' W 071°02'0 0.3
2016-Jun-19 22:34N 42°22' W 071°02'2727.5
2016-Jun-19 21:34N 42°18' W 070°26'12 9.2
2016-Jun-19 20:13N 42°16' W 070°09'4 6.3
2016-Jun-19 19:33N 42°16' W 070°15'3130.8
2016-Jun-19 18:34N 42°20' W 070°56'2 1.7
2016-Jun-19 17:34N 42°19' W 070°54'3231.0
2016-Jun-19 16:31N 42°14' W 070°11'1 1.3
2016-Jun-19 15:24N 42°14' W 070°12'2731.4
2016-Jun-19 14:33N 42°18' W 070°48'1211.7
2016-Jun-19 13:33N 42°22' W 071°03'8 7.7
2016-Jun-19 12:33N 42°16' W 070°56'  
Track history (hours):
 
Tides and Currents Weather Stations Pressure Air Temp Water Temp Dewpoint Dewpoint Depression Visibility Wind Speed Wind Dir Waves Ship Positions

Asteria

Owner: Boston HarborCruises, Boston, MA. More information available from US FCC via Universal Licensing System and Coast Guard Vessel Documentation Center.

Last reported at 2016-Jun-29 00:05 UTC. Time now 2016-Jun-29 07:30 UTC.
Position N 42°15' W 070°55'.

Length 33 m; draft 2 m.

Type: High speed craft. MMSI: 367367470.

Date/timePositionNaut miles runAvg speedWind from/ knotsBaromVisibWave heightAir tempDewpointWater temp
2016-Jun-29 00:05N 42°15' W 070°55'815.8
2016-Jun-28 23:33N 42°21' W 071°03'8 8.3
2016-Jun-28 22:34N 42°15' W 070°55'8 8.4
2016-Jun-28 21:33N 42°21' W 071°03'0 0.2
2016-Jun-28 20:34N 42°21' W 071°03'1 0.5
2016-Jun-28 19:33N 42°22' W 071°02'0 0.4
2016-Jun-28 18:34N 42°22' W 071°03'3029.8
2016-Jun-28 17:34N 42°17' W 070°23'3 2.2
2016-Jun-28 16:06N 42°16' W 070°27'1731.9
2016-Jun-28 15:34N 42°19' W 070°50'10 9.9
2016-Jun-28 14:33N 42°22' W 071°03'0 0.2
2016-Jun-28 13:34N 42°22' W 071°03'8 8.3
2016-Jun-28 12:33N 42°15' W 070°55'5 5.5
2016-Jun-28 11:34N 42°20' W 070°60'4 4.3
2016-Jun-28 10:33N 42°16' W 070°56'7 0.7
2016-Jun-27 23:33N 42°21' W 071°03'8 8.3
2016-Jun-27 22:33N 42°15' W 070°55'8 8.4
2016-Jun-27 21:34N 42°21' W 071°03'0 0.3
2016-Jun-27 20:33N 42°21' W 071°03'0 0.5
2016-Jun-27 19:33N 42°22' W 071°02'1 0.6
2016-Jun-27 18:33N 42°22' W 071°03'2626.4
2016-Jun-27 17:34N 42°24' W 070°27'6 6.2
2016-Jun-27 16:33N 42°20' W 070°21'1818.4
2016-Jun-27 15:33N 42°19' W 070°46'1312.8
2016-Jun-27 14:33N 42°22' W 071°03'3 2.5
2016-Jun-27 13:33N 42°20' W 071°00'2 2.1
2016-Jun-27 12:34N 42°21' W 071°02'8 8.1
2016-Jun-27 11:33N 42°15' W 070°55'8 8.4
2016-Jun-27 10:33N 42°21' W 071°03'8 0.7
2016-Jun-26 23:05N 42°16' W 070°56'814.3
2016-Jun-26 22:33N 42°22' W 071°02'1 0.6
2016-Jun-26 21:33N 42°22' W 071°03'2423.8
2016-Jun-26 20:34N 42°23' W 070°31'6 6.4
2016-Jun-26 19:33N 42°25' W 070°23'2120.7
2016-Jun-26 18:34N 42°21' W 070°50'9 9.4
2016-Jun-26 17:33N 42°22' W 071°03'2323.5
2016-Jun-26 16:33N 42°25' W 070°32'10 9.6
2016-Jun-26 15:33N 42°24' W 070°18'2222.4
2016-Jun-26 14:33N 42°21' W 070°48'1110.9
2016-Jun-26 13:33N 42°22' W 071°03'1 0.6
2016-Jun-26 12:33N 42°22' W 071°02'8 8.3
2016-Jun-26 11:33N 42°15' W 070°55'1 0.1
2016-Jun-26 00:32N 42°16' W 070°55'8 8.3
2016-Jun-25 23:34N 42°22' W 071°03'2 1.9
2016-Jun-25 22:33N 42°21' W 071°01'3232.4
2016-Jun-25 21:33N 42°18' W 070°17'5 4.2
2016-Jun-25 20:27N 42°18' W 070°11'2731.0
2016-Jun-25 19:33N 42°21' W 070°48'1111.4
2016-Jun-25 18:33N 42°22' W 071°03'2222.2
2016-Jun-25 17:34N 42°19' W 070°33'11 8.9
2016-Jun-25 16:21N 42°19' W 070°19'2329.6
2016-Jun-25 15:33N 42°19' W 070°50'10 9.8
2016-Jun-25 14:34N 42°22' W 071°03'1 0.6
2016-Jun-25 13:34N 42°22' W 071°02'1 1.3
2016-Jun-25 12:34N 42°23' W 071°03'10 9.4
2016-Jun-25 11:32N 42°15' W 070°55'8 0.7
2016-Jun-24 23:34N 42°21' W 071°03'8 8.2
2016-Jun-24 22:33N 42°15' W 070°55'8 8.2
2016-Jun-24 21:34N 42°21' W 071°02'0 0.3
2016-Jun-24 20:33N 42°21' W 071°03'0 0.2
2016-Jun-24 19:33N 42°22' W 071°03'1 0.6
2016-Jun-24 18:33N 42°22' W 071°02'3 2.5
2016-Jun-24 17:34N 42°20' W 070°59'2726.7
2016-Jun-24 16:33N 42°25' W 070°24'3 2.9
2016-Jun-24 15:33N 42°27' W 070°26'1817.9
2016-Jun-24 14:34N 42°23' W 070°50'10 9.7
2016-Jun-24 13:33N 42°22' W 071°03'9 8.6
2016-Jun-24 12:34N 42°15' W 070°55'6 6.1
2016-Jun-24 11:34N 42°20' W 071°00'2 2.4
2016-Jun-24 10:33N 42°21' W 071°03'6 0.8
2016-Jun-24 02:34N 42°17' W 070°57'2 2.3
2016-Jun-24 01:34N 42°19' W 070°56'3 3.1
2016-Jun-24 00:34N 42°16' W 070°56'7 7.3
2016-Jun-23 23:34N 42°21' W 071°03'8 8.2
2016-Jun-23 22:33N 42°15' W 070°55'8 8.3
2016-Jun-23 21:33N 42°21' W 071°03'0 0.0
2016-Jun-23 20:34N 42°21' W 071°03'1 0.6
2016-Jun-23 19:33N 42°22' W 071°02'1 0.6
2016-Jun-23 18:33N 42°22' W 071°03'7 6.7
2016-Jun-23 17:34N 42°22' W 070°54'2121.3
2016-Jun-23 16:33N 42°29' W 070°26'1313.3
2016-Jun-23 15:33N 42°18' W 070°16'2625.2
2016-Jun-23 14:32N 42°19' W 070°50'1010.1
2016-Jun-23 13:33N 42°22' W 071°03'9 8.6
2016-Jun-23 12:33N 42°15' W 070°55'5 5.3
2016-Jun-23 11:33N 42°19' W 070°60'4 3.5
2016-Jun-23 10:33N 42°18' W 070°55'3 2.8
2016-Jun-23 09:31N 42°15' W 070°55'0 0.0
2016-Jun-23 00:05N 42°15' W 070°55'815.7
2016-Jun-22 23:33N 42°21' W 071°03'8 8.3
2016-Jun-22 22:33N 42°15' W 070°55'8 8.4
2016-Jun-22 21:33N 42°21' W 071°03'0 0.2
2016-Jun-22 20:33N 42°21' W 071°03'2 1.5
2016-Jun-22 19:32N 42°23' W 071°03'1 1.3
2016-Jun-22 18:33N 42°22' W 071°02'5 4.8
2016-Jun-22 17:34N 42°20' W 070°56'2611.7
2016-Jun-22 15:22N 42°20' W 070°21'2125.5
2016-Jun-22 14:32N 42°19' W 070°50'1010.1
2016-Jun-22 13:33N 42°22' W 071°03'9 8.6
2016-Jun-22 12:33N 42°15' W 070°55'6 5.7
2016-Jun-22 11:34N 42°20' W 070°60'5 5.2
2016-Jun-22 10:33N 42°16' W 070°55'1 0.1
2016-Jun-22 00:05N 42°15' W 070°55'815.8
2016-Jun-21 23:33N 42°21' W 071°03'8 8.3
2016-Jun-21 22:33N 42°15' W 070°55'8 7.9
2016-Jun-21 21:33N 42°21' W 071°02'1 0.5
2016-Jun-21 20:34N 42°21' W 071°03'1 0.5
2016-Jun-21 19:33N 42°22' W 071°02'1 0.6
2016-Jun-21 18:34N 42°22' W 071°03'8 8.0
2016-Jun-21 17:34N 42°19' W 070°53'2 0.5
2016-Jun-21 14:29N 42°19' W 070°50'1010.4
2016-Jun-21 13:33N 42°22' W 071°03'9 8.5
2016-Jun-21 12:33N 42°15' W 070°55'5 5.3
2016-Jun-21 11:33N 42°19' W 070°60'4 3.5
2016-Jun-21 10:34N 42°18' W 070°55'6 0.6
2016-Jun-20 23:34N 42°21' W 071°03'8 8.3
2016-Jun-20 22:33N 42°15' W 070°55'8 8.4
2016-Jun-20 21:33N 42°21' W 071°03'0 0.3
2016-Jun-20 20:34N 42°21' W 071°03'0 0.4
2016-Jun-20 19:33N 42°22' W 071°02'1 0.6
2016-Jun-20 18:33N 42°22' W 071°03'8 8.0
2016-Jun-20 17:34N 42°21' W 070°52'4 1.3
2016-Jun-20 14:32N 42°19' W 070°49'1111.1
2016-Jun-20 13:33N 42°22' W 071°03'9 8.5
2016-Jun-20 12:33N 42°15' W 070°55'6 5.7
2016-Jun-20 11:34N 42°20' W 070°60'5 4.7
2016-Jun-20 10:33N 42°16' W 070°56'1 0.1
2016-Jun-20 00:19N 42°16' W 070°55'810.1
2016-Jun-19 23:33N 42°22' W 071°02'0 0.3
2016-Jun-19 22:34N 42°22' W 071°02'2727.5
2016-Jun-19 21:34N 42°18' W 070°26'12 9.2
2016-Jun-19 20:13N 42°16' W 070°09'4 6.3
2016-Jun-19 19:33N 42°16' W 070°15'3130.8
2016-Jun-19 18:34N 42°20' W 070°56'2 1.7
2016-Jun-19 17:34N 42°19' W 070°54'3231.0
2016-Jun-19 16:31N 42°14' W 070°11'1 1.3
2016-Jun-19 15:24N 42°14' W 070°12'2731.4
2016-Jun-19 14:33N 42°18' W 070°48'1211.7
2016-Jun-19 13:33N 42°22' W 071°03'8 7.7
2016-Jun-19 12:33N 42°16' W 070°56'  

Dump ship's entire track history